Time;durP1;ratioP1;P1;durP2;ratioP2;P2;SDS_P1;SDS_P2;PMS_P1;PMS_P2;Temp;Humidity;BMP_temperature;BMP_pressure;BME280_temperature;BME280_humidity;BME280_pressure;Samples;Min_cycle;Max_cycle;Signal;HPM_P1;HPM_P2
2023/10/02 00:02:07;;;;;;;54.90;16.35;;;;;;;;;;5058205;28;20041;-77
2023/10/02 00:04:35;;;;;;;55.40;17.25;;;;;;;;;;5045780;28;20070;-76
2023/10/02 00:07:07;;;;;;;43.63;15.80;;;;;;;;;;5064812;28;20028;-77
2023/10/02 00:09:34;;;;;;;39.00;14.50;;;;;;;;;;5059467;28;20500;-77
2023/10/02 00:12:11;;;;;;;38.63;14.80;;;;;;;;;;5058716;28;20020;-77
2023/10/02 00:14:38;;;;;;;50.80;14.38;;;;;;;;;;5061524;28;20044;-76
2023/10/02 00:17:04;;;;;;;34.42;12.85;;;;;;;;;;5059574;28;20075;-76
2023/10/02 00:19:36;;;;;;;34.53;12.25;;;;;;;;;;5063182;28;20547;-77
2023/10/02 00:25:09;;;;;;;36.72;13.05;;;;;;;;;;5050458;28;20543;-76
2023/10/02 00:27:36;;;;;;;40.42;15.02;;;;;;;;;;5049832;28;20028;-77
2023/10/02 00:30:02;;;;;;;36.85;13.70;;;;;;;;;;5030835;28;20492;-77
2023/10/02 00:32:34;;;;;;;38.55;14.20;;;;;;;;;;5048198;28;20489;-77
2023/10/02 00:35:00;;;;;;;42.15;15.02;;;;;;;;;;5054594;28;20111;-77
2023/10/02 00:37:45;;;;;;;41.80;15.38;;;;;;;;;;5061284;28;20139;-78
2023/10/02 00:40:15;;;;;;;39.60;14.75;;;;;;;;;;5058024;28;20079;-76
2023/10/02 00:42:40;;;;;;;30.92;13.25;;;;;;;;;;5055120;28;20098;-76
2023/10/02 00:45:08;;;;;;;38.45;14.57;;;;;;;;;;5057127;28;20104;-77
2023/10/02 00:47:40;;;;;;;37.97;13.95;;;;;;;;;;5057737;28;20114;-77
2023/10/02 00:50:11;;;;;;;39.00;13.90;;;;;;;;;;5056454;28;20083;-77
2023/10/02 00:52:40;;;;;;;34.58;13.77;;;;;;;;;;5060811;28;20036;-77
2023/10/02 00:55:08;;;;;;;35.53;13.52;;;;;;;;;;5061072;28;20032;-76
2023/10/02 00:57:35;;;;;;;31.73;14.32;;;;;;;;;;5064286;28;20035;-77
2023/10/02 01:00:17;;;;;;;36.35;13.73;;;;;;;;;;5061500;28;20127;-77
2023/10/02 01:02:48;;;;;;;38.22;14.10;;;;;;;;;;5061562;28;20404;-77
2023/10/02 01:05:21;;;;;;;34.53;12.98;;;;;;;;;;5060796;28;20530;-77
2023/10/02 01:07:53;;;;;;;34.55;13.15;;;;;;;;;;5063618;28;20028;-76
2023/10/02 01:10:19;;;;;;;36.95;13.15;;;;;;;;;;5063637;28;20036;-77
2023/10/02 01:12:49;;;;;;;36.88;14.07;;;;;;;;;;5045989;28;20578;-76
2023/10/02 01:15:21;;;;;;;35.58;13.35;;;;;;;;;;5064272;28;20488;-76
2023/10/02 01:17:50;;;;;;;32.20;12.52;;;;;;;;;;5060915;28;20643;-76
2023/10/02 01:20:33;;;;;;;27.58;10.82;;;;;;;;;;5063056;28;20032;-77
2023/10/02 01:23:16;;;;;;;26.75;10.48;;;;;;;;;;5062988;28;20039;-76
2023/10/02 01:25:49;;;;;;;24.52;9.43;;;;;;;;;;5057903;28;20032;-77
2023/10/02 01:28:15;;;;;;;23.38;9.88;;;;;;;;;;5060394;28;20039;-76
2023/10/02 01:30:44;;;;;;;23.95;9.00;;;;;;;;;;5062281;28;20028;-77
2023/10/02 01:35:50;;;;;;;30.38;12.93;;;;;;;;;;5060426;28;20047;-77
2023/10/02 01:38:26;;;;;;;43.65;15.00;;;;;;;;;;5062830;28;20087;-77
2023/10/02 01:41:02;;;;;;;47.20;14.65;;;;;;;;;;5063653;28;20071;-77
2023/10/02 01:43:27;;;;;;;40.47;13.98;;;;;;;;;;5060421;28;20048;-77
2023/10/02 01:46:00;;;;;;;39.47;14.43;;;;;;;;;;5063081;28;20421;-77
2023/10/02 01:48:42;;;;;;;37.78;14.07;;;;;;;;;;5060632;28;20036;-76
2023/10/02 01:51:20;;;;;;;38.97;14.70;;;;;;;;;;5062186;28;20488;-76
2023/10/02 01:53:46;;;;;;;35.92;14.50;;;;;;;;;;5063778;28;20060;-76
2023/10/02 01:56:12;;;;;;;36.97;12.98;;;;;;;;;;5062880;28;20416;-75
2023/10/02 01:58:39;;;;;;;33.22;12.43;;;;;;;;;;5063698;28;20061;-77
2023/10/02 02:01:06;;;;;;;25.48;11.30;;;;;;;;;;5062962;28;20524;-77
2023/10/02 02:03:33;;;;;;;41.10;14.18;;;;;;;;;;5065966;28;20032;-77
2023/10/02 02:06:08;;;;;;;28.50;11.13;;;;;;;;;;5058381;28;20017;-77
2023/10/02 02:08:35;;;;;;;22.98;10.43;;;;;;;;;;5063337;28;20071;-77
2023/10/02 02:11:14;;;;;;;22.55;9.15;;;;;;;;;;5059873;28;20043;-77
2023/10/02 02:13:44;;;;;;;21.10;8.50;;;;;;;;;;5062612;28;20032;-77
2023/10/02 02:16:14;;;;;;;28.67;9.23;;;;;;;;;;5060516;28;20115;-76
2023/10/02 02:18:42;;;;;;;24.33;8.85;;;;;;;;;;5062207;28;20033;-77
2023/10/02 02:21:10;;;;;;;18.02;7.88;;;;;;;;;;5062409;28;20067;-76
2023/10/02 02:23:36;;;;;;;24.52;8.63;;;;;;;;;;5062561;28;20055;-77
2023/10/02 02:26:01;;;;;;;25.95;9.02;;;;;;;;;;5060730;28;20048;-77
2023/10/02 02:28:28;;;;;;;16.23;7.47;;;;;;;;;;5059280;28;20120;-76
2023/10/02 02:30:55;;;;;;;22.98;9.35;;;;;;;;;;5058787;28;20040;-78
2023/10/02 02:33:34;;;;;;;22.75;8.30;;;;;;;;;;5065295;28;20392;-78
2023/10/02 02:36:05;;;;;;;30.45;10.48;;;;;;;;;;5065246;28;20434;-77
2023/10/02 02:38:33;;;;;;;28.75;9.57;;;;;;;;;;5020754;28;20124;-77
2023/10/02 02:41:06;;;;;;;29.48;11.07;;;;;;;;;;5041139;28;20041;-77
2023/10/02 02:43:32;;;;;;;30.38;10.23;;;;;;;;;;5041597;28;20036;-76
2023/10/02 02:45:57;;;;;;;30.15;9.95;;;;;;;;;;5040394;28;20037;-77
2023/10/02 02:48:25;;;;;;;39.20;12.15;;;;;;;;;;5041562;28;20053;-77
2023/10/02 02:50:51;;;;;;;36.03;12.18;;;;;;;;;;5042159;28;20020;-76
2023/10/02 02:53:16;;;;;;;31.02;11.70;;;;;;;;;;5024096;28;20041;-76
2023/10/02 02:55:45;;;;;;;34.45;11.95;;;;;;;;;;5047457;28;20041;-76
2023/10/02 02:58:11;;;;;;;33.40;10.45;;;;;;;;;;5070703;22;20114;-76
2023/10/02 03:00:39;;;;;;;33.95;10.93;;;;;;;;;;5056453;28;20056;-76
2023/10/02 03:03:29;;;;;;;37.20;12.75;;;;;;;;;;5043937;28;20082;-76
2023/10/02 03:05:52;;;;;;;36.03;12.68;;;;;;;;;;5062070;28;20029;-76
2023/10/02 03:08:19;;;;;;;34.08;13.57;;;;;;;;;;5056339;28;20029;-75
2023/10/02 03:10:46;;;;;;;38.85;12.65;;;;;;;;;;5063735;28;20029;-77
2023/10/02 03:13:17;;;;;;;52.28;13.60;;;;;;;;;;5055702;28;20060;-75
2023/10/02 03:15:46;;;;;;;50.08;14.60;;;;;;;;;;5060633;28;20041;-76
2023/10/02 03:18:31;;;;;;;44.28;14.15;;;;;;;;;;5057966;28;20107;-75
2023/10/02 03:21:06;;;;;;;39.10;14.25;;;;;;;;;;5037690;28;20039;-75
2023/10/02 03:23:34;;;;;;;44.45;14.75;;;;;;;;;;5055550;28;20496;-75
2023/10/02 03:26:07;;;;;;;39.50;13.38;;;;;;;;;;5052397;28;20496;-75
2023/10/02 03:28:33;;;;;;;41.33;13.18;;;;;;;;;;5064774;28;20032;-75
2023/10/02 03:31:00;;;;;;;48.92;13.73;;;;;;;;;;5065222;28;20056;-75
2023/10/02 03:33:31;;;;;;;36.13;10.32;;;;;;;;;;5042630;28;20124;-75
2023/10/02 03:36:09;;;;;;;34.58;10.77;;;;;;;;;;5057797;28;20110;-75
2023/10/02 03:38:44;;;;;;;30.90;10.45;;;;;;;;;;5053787;28;20079;-76
2023/10/02 03:41:11;;;;;;;30.48;10.13;;;;;;;;;;5054931;28;20032;-76
2023/10/02 03:43:49;;;;;;;35.60;12.00;;;;;;;;;;5061339;28;20037;-76
2023/10/02 03:46:22;;;;;;;47.42;13.80;;;;;;;;;;5038271;28;20040;-75
2023/10/02 03:48:58;;;;;;;52.97;14.50;;;;;;;;;;5053965;28;20121;-75
2023/10/02 03:51:36;;;;;;;48.83;14.90;;;;;;;;;;5043907;28;20560;-75
2023/10/02 03:54:18;;;;;;;47.35;14.63;;;;;;;;;;5051300;28;20747;-76
2023/10/02 03:56:56;;;;;;;49.75;14.60;;;;;;;;;;5044673;28;20039;-76
2023/10/02 03:59:26;;;;;;;28.45;10.57;;;;;;;;;;5068891;28;20040;-75
2023/10/02 04:01:53;;;;;;;36.72;12.38;;;;;;;;;;5066315;28;20050;-76
2023/10/02 04:06:45;;;;;;;47.28;14.70;;;;;;;;;;5051630;28;20047;-76
2023/10/02 04:09:18;;;;;;;40.75;14.73;;;;;;;;;;5054646;28;20037;-76
2023/10/02 04:11:45;;;;;;;50.17;15.27;;;;;;;;;;5050948;28;20021;-76
2023/10/02 04:14:17;;;;;;;46.05;14.80;;;;;;;;;;5040269;28;20291;-75
2023/10/02 04:17:09;;;;;;;51.58;15.73;;;;;;;;;;5037390;28;20029;-76
2023/10/02 04:19:35;;;;;;;51.47;16.17;;;;;;;;;;5040480;28;20575;-76
2023/10/02 04:22:06;;;;;;;45.83;14.63;;;;;;;;;;5044806;28;20400;-76
2023/10/02 04:32:34;;;;;;;37.03;13.40;;;;;;;;;;5058406;28;20032;-76
2023/10/02 04:35:02;;;;;;;40.78;12.73;;;;;;;;;;5050866;28;20036;-76
2023/10/02 04:37:31;;;;;;;35.08;12.02;;;;;;;;;;5042620;28;20052;-76
2023/10/02 04:42:25;;;;;;;26.67;10.05;;;;;;;;;;5061307;28;20045;-76
2023/10/02 04:44:58;;;;;;;38.92;13.93;;;;;;;;;;5057255;28;20025;-76
2023/10/02 04:47:26;;;;;;;46.75;14.15;;;;;;;;;;5057240;28;20036;-76
2023/10/02 04:52:55;;;;;;;51.35;17.33;;;;;;;;;;5055047;28;20048;-76
2023/10/02 04:55:31;;;;;;;48.97;15.45;;;;;;;;;;5040861;28;20029;-77
2023/10/02 04:58:04;;;;;;;50.65;14.93;;;;;;;;;;5054674;28;20127;-76
2023/10/02 05:00:33;;;;;;;43.47;13.80;;;;;;;;;;5051263;28;20037;-76
2023/10/02 05:03:09;;;;;;;41.03;14.15;;;;;;;;;;5058584;28;20052;-76
2023/10/02 05:05:42;;;;;;;30.90;10.70;;;;;;;;;;5076916;28;21009;-77
2023/10/02 05:08:18;;;;;;;33.65;11.20;;;;;;;;;;5069254;28;21005;-77
2023/10/02 05:10:47;;;;;;;30.48;11.23;;;;;;;;;;5061551;28;20045;-76
2023/10/02 05:13:13;;;;;;;38.80;13.02;;;;;;;;;;5043828;28;20090;-76
2023/10/02 05:16:06;;;;;;;38.33;12.63;;;;;;;;;;5034458;28;20031;-77
2023/10/02 05:18:24;;;;;;;42.08;12.73;;;;;;;;;;5053051;28;20049;-77
2023/10/02 05:20:49;;;;;;;40.38;12.70;;;;;;;;;;5055207;28;20025;-77
2023/10/02 05:23:15;;;;;;;33.70;12.05;;;;;;;;;;5036936;28;20532;-77
2023/10/02 05:25:41;;;;;;;33.55;12.50;;;;;;;;;;5059156;28;20033;-76
2023/10/02 05:28:07;;;;;;;41.42;12.38;;;;;;;;;;5057832;28;20041;-76
2023/10/02 05:30:41;;;;;;;39.55;13.38;;;;;;;;;;5056833;28;20107;-76
2023/10/02 05:33:07;;;;;;;42.97;14.68;;;;;;;;;;5053700;28;20028;-76
2023/10/02 05:35:33;;;;;;;39.03;13.38;;;;;;;;;;5056124;28;20029;-77
2023/10/02 05:37:58;;;;;;;54.40;15.45;;;;;;;;;;5054523;28;20089;-77
2023/10/02 05:48:31;;;;;;;41.97;13.73;;;;;;;;;;5051959;28;20032;-76
2023/10/02 05:50:59;;;;;;;44.03;13.63;;;;;;;;;;5056220;28;20098;-76
2023/10/02 05:53:26;;;;;;;43.13;13.63;;;;;;;;;;5055569;28;20044;-77
2023/10/02 05:56:35;;;;;;;42.22;15.98;;;;;;;;;;5055643;28;20036;-77
2023/10/02 05:58:43;;;;;;;40.10;18.08;;;;;;;;;;5051562;28;20169;-77
2023/10/02 06:01:18;;;;;;;40.88;17.05;;;;;;;;;;5035729;28;20041;-77
2023/10/02 06:03:45;;;;;;;39.15;13.57;;;;;;;;;;5057498;28;20052;-78
2023/10/02 06:06:18;;;;;;;30.52;11.50;;;;;;;;;;5054175;28;20025;-77
2023/10/02 06:08:49;;;;;;;31.15;12.02;;;;;;;;;;5055797;28;20570;-77
2023/10/02 06:11:34;;;;;;;27.63;10.40;;;;;;;;;;5056437;28;20048;-77
2023/10/02 06:14:11;;;;;;;34.40;10.57;;;;;;;;;;5060307;28;20041;-77
2023/10/02 06:16:38;;;;;;;38.15;11.90;;;;;;;;;;5050558;28;20039;-77
2023/10/02 06:19:06;;;;;;;37.20;12.32;;;;;;;;;;5068475;28;20062;-77
2023/10/02 06:21:45;;;;;;;39.53;13.60;;;;;;;;;;5061331;28;20060;-76
2023/10/02 06:24:18;;;;;;;35.08;12.75;;;;;;;;;;5063129;28;20013;-76
2023/10/02 06:26:49;;;;;;;38.78;13.80;;;;;;;;;;5023431;28;20035;-76
2023/10/02 06:29:24;;;;;;;38.05;13.18;;;;;;;;;;5055925;28;20043;-77
2023/10/02 06:32:05;;;;;;;39.45;13.45;;;;;;;;;;5051471;28;20041;-76
2023/10/02 06:34:37;;;;;;;39.90;13.13;;;;;;;;;;5048186;28;20110;-76
2023/10/02 06:37:16;;;;;;;37.55;14.07;;;;;;;;;;5052117;28;20033;-76
2023/10/02 06:40:07;;;;;;;35.75;13.15;;;;;;;;;;5034999;28;20159;-76
2023/10/02 06:42:33;;;;;;;37.00;14.45;;;;;;;;;;5052047;28;20068;-76
2023/10/02 06:45:01;;;;;;;34.00;14.25;;;;;;;;;;5055338;28;20017;-76
2023/10/02 06:47:29;;;;;;;43.60;14.85;;;;;;;;;;5074570;28;20040;-76
2023/10/02 06:50:02;;;;;;;33.15;13.75;;;;;;;;;;5058417;28;20120;-76
2023/10/02 06:52:32;;;;;;;35.60;12.95;;;;;;;;;;5058063;28;20119;-76
2023/10/02 06:54:57;;;;;;;28.80;11.55;;;;;;;;;;5067095;28;20040;-76
2023/10/02 06:57:26;;;;;;;33.45;12.48;;;;;;;;;;5065752;28;20049;-76
2023/10/02 06:59:52;;;;;;;33.17;13.00;;;;;;;;;;5055465;28;20116;-76
2023/10/02 07:02:26;;;;;;;29.95;12.55;;;;;;;;;;5055343;28;20560;-76
2023/10/02 07:04:53;;;;;;;36.60;13.48;;;;;;;;;;5050192;28;20044;-76
2023/10/02 07:07:26;;;;;;;29.83;13.18;;;;;;;;;;5052913;28;20378;-76
2023/10/02 07:10:07;;;;;;;34.63;13.10;;;;;;;;;;5056618;28;20110;-76
2023/10/02 07:12:39;;;;;;;40.30;13.65;;;;;;;;;;5061327;28;20036;-76
2023/10/02 07:15:11;;;;;;;39.03;15.40;;;;;;;;;;5064779;28;20024;-76
2023/10/02 07:17:47;;;;;;;40.22;15.98;;;;;;;;;;5063054;28;20025;-76
2023/10/02 07:20:13;;;;;;;40.28;14.48;;;;;;;;;;5034171;28;20159;-77
2023/10/02 07:22:40;;;;;;;42.88;15.68;;;;;;;;;;5048601;28;20175;-77
2023/10/02 07:25:07;;;;;;;43.58;16.63;;;;;;;;;;5051319;28;20033;-76
2023/10/02 07:27:34;;;;;;;40.17;15.45;;;;;;;;;;5058684;28;20048;-77
2023/10/02 07:30:02;;;;;;;42.03;16.17;;;;;;;;;;5069783;28;20027;-77
2023/10/02 07:32:31;;;;;;;40.17;14.77;;;;;;;;;;5069933;28;20040;-76
2023/10/02 07:35:09;;;;;;;40.60;16.00;;;;;;;;;;5045015;28;20048;-77
2023/10/02 07:37:35;;;;;;;42.22;16.05;;;;;;;;;;5062961;28;20504;-76
2023/10/02 07:40:02;;;;;;;40.35;14.95;;;;;;;;;;5050152;28;20056;-76
2023/10/02 07:42:29;;;;;;;42.75;15.90;;;;;;;;;;5054364;28;20403;-77
2023/10/02 07:45:11;;;;;;;41.53;15.57;;;;;;;;;;5060178;28;20031;-77
2023/10/02 07:48:08;;;;;;;41.92;14.98;;;;;;;;;;5059080;28;20032;-77
2023/10/02 07:50:38;;;;;;;42.47;14.57;;;;;;;;;;5048058;28;20036;-77
2023/10/02 07:53:05;;;;;;;43.97;15.77;;;;;;;;;;5057275;28;20049;-77
2023/10/02 07:55:39;;;;;;;39.47;16.42;;;;;;;;;;5041317;28;20037;-77
2023/10/02 07:58:07;;;;;;;38.08;14.77;;;;;;;;;;5042013;28;20033;-78
2023/10/02 08:00:33;;;;;;;39.05;15.50;;;;;;;;;;5062601;28;20433;-76
2023/10/02 08:03:02;;;;;;;44.35;15.55;;;;;;;;;;5054578;28;20115;-76
2023/10/02 08:05:32;;;;;;;49.15;15.27;;;;;;;;;;5064132;28;20044;-77
2023/10/02 08:08:10;;;;;;;61.38;18.17;;;;;;;;;;5057748;28;20064;-77
2023/10/02 08:10:49;;;;;;;42.22;14.85;;;;;;;;;;5058858;28;20040;-76
2023/10/02 08:13:16;;;;;;;42.58;14.73;;;;;;;;;;5046653;28;20051;-77
2023/10/02 08:15:44;;;;;;;44.28;15.57;;;;;;;;;;5043663;28;20086;-78
2023/10/02 08:18:19;;;;;;;37.55;14.52;;;;;;;;;;5064643;28;20037;-76
2023/10/02 08:20:45;;;;;;;40.22;14.80;;;;;;;;;;5046930;28;20024;-76
2023/10/02 08:23:24;;;;;;;47.70;15.27;;;;;;;;;;5040741;28;20040;-76
2023/10/02 08:26:00;;;;;;;40.05;15.82;;;;;;;;;;5064438;28;20033;-76
2023/10/02 08:28:36;;;;;;;37.67;14.00;;;;;;;;;;5059226;28;20045;-76
2023/10/02 08:31:02;;;;;;;38.05;14.57;;;;;;;;;;5052668;28;20051;-76
2023/10/02 08:33:30;;;;;;;37.20;15.18;;;;;;;;;;5055897;28;20059;-76
2023/10/02 08:35:58;;;;;;;37.38;14.32;;;;;;;;;;5035318;28;20393;-76
2023/10/02 08:38:26;;;;;;;45.83;16.50;;;;;;;;;;5049032;28;20128;-76
2023/10/02 08:41:00;;;;;;;38.30;15.82;;;;;;;;;;5050475;28;20450;-76
2023/10/02 08:43:27;;;;;;;43.10;16.45;;;;;;;;;;5050400;28;20494;-76
2023/10/02 08:45:53;;;;;;;49.78;15.85;;;;;;;;;;5055181;28;20040;-76
2023/10/02 08:48:20;;;;;;;43.47;15.68;;;;;;;;;;5055428;28;20403;-76
2023/10/02 08:50:49;;;;;;;41.42;16.70;;;;;;;;;;5077057;28;20115;-76
2023/10/02 08:53:22;;;;;;;41.55;16.42;;;;;;;;;;5066866;28;21443;-79
2023/10/02 08:58:16;;;;;;;38.45;16.58;;;;;;;;;;5079466;28;20390;-78
2023/10/02 09:03:43;;;;;;;42.53;17.10;;;;;;;;;;5070134;28;20116;-77
2023/10/02 09:06:31;;;;;;;42.88;16.60;;;;;;;;;;5075224;28;20023;-77
2023/10/02 09:09:16;;;;;;;39.78;16.23;;;;;;;;;;5064863;28;20024;-77
2023/10/02 09:11:45;;;;;;;40.17;16.65;;;;;;;;;;5055634;28;20044;-77
2023/10/02 09:14:39;;;;;;;37.80;16.58;;;;;;;;;;5071299;28;20030;-77
2023/10/02 09:17:20;;;;;;;41.55;16.60;;;;;;;;;;5070540;28;20112;-78
2023/10/02 09:19:53;;;;;;;37.08;15.82;;;;;;;;;;5070130;28;20047;-77
2023/10/02 09:22:20;;;;;;;41.47;16.67;;;;;;;;;;5073339;28;20032;-77
2023/10/02 09:25:09;;;;;;;47.28;17.27;;;;;;;;;;5054362;28;20070;-77
2023/10/02 09:27:38;;;;;;;39.75;15.75;;;;;;;;;;5066024;28;20060;-77
2023/10/02 09:32:47;;;;;;;42.13;16.98;;;;;;;;;;5051434;28;20515;-77
2023/10/02 09:35:23;;;;;;;40.38;15.88;;;;;;;;;;5049631;28;20052;-77
2023/10/02 09:37:55;;;;;;;40.90;16.52;;;;;;;;;;5045016;28;20175;-77
2023/10/02 09:43:32;;;;;;;43.20;17.80;;;;;;;;;;5021286;28;20512;-77
2023/10/02 09:46:15;;;;;;;56.80;16.50;;;;;;;;;;5073001;28;20051;-77
2023/10/02 09:51:30;;;;;;;40.40;16.52;;;;;;;;;;5077888;28;20031;-77
2023/10/02 09:54:13;;;;;;;41.03;17.45;;;;;;;;;;5077549;28;20583;-77
2023/10/02 09:57:05;;;;;;;42.58;18.05;;;;;;;;;;5063947;28;20100;-77
2023/10/02 09:59:45;;;;;;;41.45;17.50;;;;;;;;;;5063142;28;20743;-77
2023/10/02 10:02:47;;;;;;;47.10;18.50;;;;;;;;;;5070518;28;20044;-77
2023/10/02 10:10:49;;;;;;;44.03;17.92;;;;;;;;;;5068865;28;20037;-78
2023/10/02 10:13:46;;;;;;;45.67;17.27;;;;;;;;;;5071754;28;20036;-78
2023/10/02 10:16:14;;;;;;;47.58;18.13;;;;;;;;;;5060394;28;20052;-78
2023/10/02 10:19:26;;;;;;;44.08;17.90;;;;;;;;;;5056705;28;20036;-78
2023/10/02 10:21:57;;;;;;;47.67;19.38;;;;;;;;;;5055360;28;20044;-78
2023/10/02 10:24:51;;;;;;;45.30;17.75;;;;;;;;;;5060194;28;20494;-78
2023/10/02 10:27:42;;;;;;;44.70;17.17;;;;;;;;;;5050803;28;20060;-78
2023/10/02 10:30:19;;;;;;;50.95;18.73;;;;;;;;;;5046582;28;20040;-78
2023/10/02 10:32:45;;;;;;;49.58;20.35;;;;;;;;;;5041870;28;20301;-78
2023/10/02 10:35:29;;;;;;;50.38;19.48;;;;;;;;;;5061976;28;20051;-78
2023/10/02 10:37:56;;;;;;;;;;;;;;;;;;5060584;28;20482;-77
2023/10/02 10:41:01;;;;;;;49.53;18.45;;;;;;;;;;5060936;28;19917;-77
2023/10/02 10:43:55;;;;;;;50.38;19.95;;;;;;;;;;5066255;28;20041;-77
2023/10/02 10:46:27;;;;;;;;;;;;;;;;;;5070527;28;20029;-77
2023/10/02 10:48:59;;;;;;;41.38;18.20;;;;;;;;;;5060260;28;19930;-77
2023/10/02 10:51:27;;;;;;;47.95;18.10;;;;;;;;;;5058447;28;20508;-77
2023/10/02 10:54:09;;;;;;;46.88;18.73;;;;;;;;;;5033630;28;20544;-77
2023/10/02 10:56:34;;;;;;;49.92;18.83;;;;;;;;;;5060576;28;20036;-77
2023/10/02 10:59:11;;;;;;;48.33;19.60;;;;;;;;;;5063836;28;20055;-78
2023/10/02 11:01:37;;;;;;;41.47;17.95;;;;;;;;;;5062375;28;20443;-77
2023/10/02 11:04:04;;;;;;;53.13;18.90;;;;;;;;;;5052458;28;20048;-77
2023/10/02 11:06:29;;;;;;;49.35;19.60;;;;;;;;;;5041066;28;20060;-78
2023/10/02 11:09:11;;;;;;;45.33;17.88;;;;;;;;;;5049812;28;20052;-77
2023/10/02 11:11:53;;;;;;;49.88;19.10;;;;;;;;;;5038867;28;20056;-78
2023/10/02 11:14:34;;;;;;;42.88;18.58;;;;;;;;;;5033081;28;20115;-78
2023/10/02 11:17:11;;;;;;;47.00;19.10;;;;;;;;;;5059899;28;20250;-78
2023/10/02 11:19:45;;;;;;;50.08;20.42;;;;;;;;;;5054013;28;20575;-78
2023/10/02 11:22:16;;;;;;;50.63;19.98;;;;;;;;;;5047198;28;20036;-78
2023/10/02 11:24:48;;;;;;;49.90;18.92;;;;;;;;;;5052516;28;20039;-78
2023/10/02 11:27:16;;;;;;;47.42;20.13;;;;;;;;;;5050606;28;20477;-77
2023/10/02 11:29:43;;;;;;;44.05;18.65;;;;;;;;;;5060882;28;20111;-77
2023/10/02 11:32:22;;;;;;;49.45;20.73;;;;;;;;;;5047295;28;20041;-77
2023/10/02 11:34:58;;;;;;;46.42;19.70;;;;;;;;;;5073046;28;20068;-78
2023/10/02 11:37:26;;;;;;;53.83;19.58;;;;;;;;;;5077767;28;20365;-77
2023/10/02 11:39:52;;;;;;;51.05;19.15;;;;;;;;;;5066933;28;20397;-77
2023/10/02 11:42:19;;;;;;;54.30;19.98;;;;;;;;;;5071809;28;21210;-78
2023/10/02 11:44:44;;;;;;;61.22;20.00;;;;;;;;;;5041416;28;20078;-77
2023/10/02 11:47:09;;;;;;;48.15;20.20;;;;;;;;;;5066438;28;20033;-79
2023/10/02 11:49:36;;;;;;;54.15;21.15;;;;;;;;;;5043546;28;20040;-77
2023/10/02 11:52:02;;;;;;;49.55;19.63;;;;;;;;;;5064395;28;20046;-77
2023/10/02 11:54:28;;;;;;;42.35;19.63;;;;;;;;;;5065516;28;20520;-78
2023/10/02 11:56:54;;;;;;;46.72;19.75;;;;;;;;;;5065769;28;20052;-77
2023/10/02 11:59:19;;;;;;;48.88;19.80;;;;;;;;;;5062315;28;20112;-78
2023/10/02 12:01:47;;;;;;;56.50;19.98;;;;;;;;;;5064531;28;20060;-78
2023/10/02 12:04:14;;;;;;;57.97;21.92;;;;;;;;;;5066220;28;20032;-78
2023/10/02 12:06:40;;;;;;;53.72;20.23;;;;;;;;;;5060974;28;20149;-78
2023/10/02 12:09:06;;;;;;;54.05;21.27;;;;;;;;;;5061076;28;20074;-79
2023/10/02 12:11:34;;;;;;;50.63;19.98;;;;;;;;;;5070798;28;20025;-78
2023/10/02 12:14:02;;;;;;;50.53;20.00;;;;;;;;;;5062399;28;20037;-78
2023/10/02 12:16:28;;;;;;;53.15;20.48;;;;;;;;;;5064697;28;20055;-78
2023/10/02 12:18:53;;;;;;;49.47;21.00;;;;;;;;;;5062763;28;20488;-78
2023/10/02 12:21:21;;;;;;;55.90;20.85;;;;;;;;;;5041087;28;20476;-78
2023/10/02 12:23:47;;;;;;;48.08;20.98;;;;;;;;;;5069011;28;20409;-78
2023/10/02 12:26:14;;;;;;;50.70;18.60;;;;;;;;;;5060201;28;20074;-78
2023/10/02 12:28:40;;;;;;;48.95;20.65;;;;;;;;;;5045264;28;20407;-78
2023/10/02 12:31:19;;;;;;;53.35;21.33;;;;;;;;;;5057613;28;20037;-79
2023/10/02 12:33:46;;;;;;;49.28;20.35;;;;;;;;;;5034640;28;20048;-78
2023/10/02 12:36:19;;;;;;;45.60;19.05;;;;;;;;;;5055916;28;20017;-77
2023/10/02 12:38:46;;;;;;;49.63;21.03;;;;;;;;;;5061772;28;20021;-78
2023/10/02 12:41:15;;;;;;;43.28;19.52;;;;;;;;;;5060373;28;20275;-78
2023/10/02 12:43:43;;;;;;;46.75;19.92;;;;;;;;;;5057296;28;20136;-78
2023/10/02 12:46:11;;;;;;;41.83;19.15;;;;;;;;;;5061776;28;20042;-78
2023/10/02 12:48:36;;;;;;;47.20;21.23;;;;;;;;;;5058942;28;20696;-78
2023/10/02 12:51:06;;;;;;;46.58;19.73;;;;;;;;;;5070328;28;20043;-78
2023/10/02 12:53:31;;;;;;;44.83;20.00;;;;;;;;;;5070637;28;20049;-78
2023/10/02 12:55:58;;;;;;;47.97;20.15;;;;;;;;;;5073249;28;20630;-79
2023/10/02 12:58:23;;;;;;;46.45;20.10;;;;;;;;;;5045548;28;20717;-79
2023/10/02 13:00:50;;;;;;;45.55;19.98;;;;;;;;;;5047147;28;20044;-79
2023/10/02 13:03:15;;;;;;;56.30;21.88;;;;;;;;;;5067867;28;20013;-79
2023/10/02 13:05:43;;;;;;;48.58;20.95;;;;;;;;;;5071472;28;20021;-78
2023/10/02 13:08:09;;;;;;;45.42;20.23;;;;;;;;;;5064650;28;20032;-78
2023/10/02 13:10:34;;;;;;;48.50;21.35;;;;;;;;;;5068476;28;20036;-78
2023/10/02 13:13:00;;;;;;;47.85;21.50;;;;;;;;;;5067731;28;20401;-78
2023/10/02 13:15:27;;;;;;;44.13;20.75;;;;;;;;;;5065555;28;20124;-78
2023/10/02 13:17:54;;;;;;;47.28;20.73;;;;;;;;;;5068837;28;20031;-78
2023/10/02 13:20:19;;;;;;;46.00;20.58;;;;;;;;;;5050911;28;20059;-78
2023/10/02 13:22:45;;;;;;;46.15;21.63;;;;;;;;;;5069058;28;20036;-78
2023/10/02 13:25:14;;;;;;;57.05;22.42;;;;;;;;;;5064915;28;20037;-78
2023/10/02 13:27:40;;;;;;;49.60;21.33;;;;;;;;;;5067096;28;20029;-78
2023/10/02 13:30:19;;;;;;;63.58;21.33;;;;;;;;;;5068407;28;20036;-78
2023/10/02 13:32:44;;;;;;;52.33;22.85;;;;;;;;;;5069918;28;20017;-78
2023/10/02 13:35:09;;;;;;;51.15;21.20;;;;;;;;;;5067086;28;20044;-78
2023/10/02 13:37:35;;;;;;;46.17;20.42;;;;;;;;;;5068748;28;20036;-78
2023/10/02 13:40:00;;;;;;;49.80;21.63;;;;;;;;;;5064207;28;20048;-78
2023/10/02 13:42:26;;;;;;;52.08;22.45;;;;;;;;;;5067756;28;20037;-78
2023/10/02 13:44:51;;;;;;;45.90;21.58;;;;;;;;;;5061462;28;20021;-78
2023/10/02 13:47:17;;;;;;;53.08;20.83;;;;;;;;;;5065436;28;20025;-78
2023/10/02 13:49:43;;;;;;;43.42;20.15;;;;;;;;;;5048868;28;20036;-78
2023/10/02 13:52:09;;;;;;;49.55;21.27;;;;;;;;;;5063597;28;20112;-78
2023/10/02 13:54:35;;;;;;;48.28;21.65;;;;;;;;;;5057229;28;20510;-78
2023/10/02 13:57:02;;;;;;;47.80;20.83;;;;;;;;;;5053217;28;20025;-78
2023/10/02 13:59:32;;;;;;;54.60;20.67;;;;;;;;;;5074677;28;20042;-78
2023/10/02 14:01:58;;;;;;;45.03;20.17;;;;;;;;;;5045392;28;20124;-78
2023/10/02 14:04:29;;;;;;;46.80;21.33;;;;;;;;;;5037116;28;20052;-78
2023/10/02 14:06:55;;;;;;;44.10;20.08;;;;;;;;;;5065970;28;20048;-78
2023/10/02 14:09:20;;;;;;;42.85;20.15;;;;;;;;;;5065946;28;20020;-78
2023/10/02 14:11:46;;;;;;;49.90;20.25;;;;;;;;;;5064660;28;20016;-78
2023/10/02 14:14:12;;;;;;;47.67;19.92;;;;;;;;;;5047612;28;20083;-79
2023/10/02 14:16:40;;;;;;;50.47;22.05;;;;;;;;;;5062031;28;20060;-79
2023/10/02 14:19:06;;;;;;;46.55;20.85;;;;;;;;;;5038529;28;20060;-79
2023/10/02 14:21:32;;;;;;;47.03;21.42;;;;;;;;;;5059834;28;20033;-79
2023/10/02 14:23:58;;;;;;;44.80;20.40;;;;;;;;;;5042896;28;20097;-79
2023/10/02 14:26:24;;;;;;;44.90;20.98;;;;;;;;;;5060223;28;20558;-79
2023/10/02 14:28:51;;;;;;;47.08;21.67;;;;;;;;;;5043369;28;20099;-79
2023/10/02 14:31:29;;;;;;;45.25;20.75;;;;;;;;;;5055777;28;20041;-79
2023/10/02 14:33:55;;;;;;;47.20;20.83;;;;;;;;;;5062701;28;20454;-79
2023/10/02 14:36:20;;;;;;;45.08;19.92;;;;;;;;;;5040519;28;20108;-79
2023/10/02 14:38:45;;;;;;;47.47;21.50;;;;;;;;;;5058673;28;20533;-78
2023/10/02 14:41:11;;;;;;;47.08;20.45;;;;;;;;;;5051685;28;20048;-78
2023/10/02 14:43:36;;;;;;;48.55;21.00;;;;;;;;;;5036460;28;20036;-79
2023/10/02 14:46:04;;;;;;;54.30;22.33;;;;;;;;;;5068484;28;20567;-78
2023/10/02 14:48:30;;;;;;;50.33;22.05;;;;;;;;;;5069115;28;20067;-79
2023/10/02 14:50:58;;;;;;;51.20;21.88;;;;;;;;;;5083056;28;20109;-79
2023/10/02 14:53:25;;;;;;;53.65;22.48;;;;;;;;;;5051479;28;20498;-79
2023/10/02 14:55:50;;;;;;;49.70;21.13;;;;;;;;;;5081075;28;20032;-79
2023/10/02 15:00:43;;;;;;;47.88;18.75;;;;;;;;;;5038117;28;20048;-75
2023/10/02 15:03:09;;;;;;;52.50;19.75;;;;;;;;;;5053893;28;20017;-74
2023/10/02 15:05:37;;;;;;;55.70;21.20;;;;;;;;;;5054434;28;20025;-75
2023/10/02 15:08:03;;;;;;;49.25;20.13;;;;;;;;;;5053609;28;20040;-74
2023/10/02 15:10:30;;;;;;;48.97;20.90;;;;;;;;;;5053445;28;20128;-74
2023/10/02 15:12:55;;;;;;;53.10;20.30;;;;;;;;;;5053448;28;20122;-74
2023/10/02 15:15:24;;;;;;;43.42;19.50;;;;;;;;;;5053523;28;20064;-73
2023/10/02 15:17:52;;;;;;;44.78;19.02;;;;;;;;;;5053816;28;20116;-74
2023/10/02 15:20:21;;;;;;;49.00;19.13;;;;;;;;;;5053802;28;20075;-74
2023/10/02 15:22:51;;;;;;;42.00;18.33;;;;;;;;;;5053809;28;20037;-74
2023/10/02 15:25:17;;;;;;;44.63;19.52;;;;;;;;;;5035968;28;20025;-74
2023/10/02 15:27:47;;;;;;;43.58;18.48;;;;;;;;;;5052978;28;20067;-74
2023/10/02 15:30:16;;;;;;;48.72;18.42;;;;;;;;;;5052841;28;20036;-74
2023/10/02 15:32:44;;;;;;;47.00;20.10;;;;;;;;;;5053546;28;20037;-74